Flight Track Log - Related Links

Times and Time Zones

All times are in EDT time to prevent confusion due to time zone crossing. See the N311GM flight status page for this flight to view local times or setup timezone preferences in your user account.

Time Position Orientation Groundspeed Altitude Reporting Facility
EDT Latitude Longitude Course Direction KTS MPH feet Rate Location/Type
Thu 07:58:00 PM 29.5858 -90.6308 53° Northeast 140 161 3,800  Level Houston Center
Thu 07:59:02 PM 29.6250 -90.6189 15° North 142 163 6,200 2,390 Climbing Houston Center
Thu 08:00:03 PM 29.6728 -90.5983 20° North 148 170 8,700 2,293 Climbing Houston Center
Thu 08:01:05 PM 29.7142 -90.5786 22° Northeast 156 180 10,900 1,839 Climbing Houston Center
Thu 08:02:07 PM 29.7567 -90.5592 22° Northeast 162 186 12,500 1,597 Climbing Houston Center
Thu 08:03:09 PM 29.8047 -90.5347 24° Northeast 187 215 14,200 1,659 Climbing Houston Center
Thu 08:04:10 PM 29.8539 -90.5144 20° North 186 214 15,900 1,512 Climbing Houston Center
Thu 08:05:12 PM 29.9031 -90.4914 22° Northeast 190 219 17,300 1,306 Climbing Houston Center
Thu 08:06:14 PM 29.9550 -90.4692 20° North 197 227 18,600 1,355 Climbing Houston Center
Thu 08:07:16 PM 30.0164 -90.4406 22° Northeast 201 231 20,100 1,306 Climbing Houston Center
Thu 08:08:18 PM 30.0711 -90.4167 21° North 208 239 21,300 1,122 Climbing Houston Center
Thu 08:09:19 PM 30.1258 -90.3922 21° North 212 244 22,400 1,024 Climbing Houston Center
Thu 08:10:21 PM 30.1828 -90.3675 21° North 216 249 23,400 919 Climbing Houston Center
Thu 08:11:23 PM 30.2394 -90.3419 21° North 218 251 24,300 774 Climbing Houston Center
Thu 08:12:25 PM 30.2969 -90.3161 21° North 220 253 25,000 339 Climbing Houston Center
Thu 08:13:27 PM 30.3622 -90.2856 22° Northeast 247 284 25,000  Level Houston Center
Thu 08:14:28 PM 30.4344 -90.2544 20° North 268 308 25,000 390 Level Houston Center
Thu 08:15:30 PM 30.5208 -90.2153 21° North 275 316 25,800 968 Climbing Houston Center
Thu 08:16:32 PM 30.5831 -90.1864 22° Northeast 246 283 27,000 919 Climbing Houston Center
Thu 08:17:34 PM 30.6431 -90.1600 21° North 231 266 27,700 532 Climbing Houston Center
Thu 08:18:36 PM 30.7053 -90.1314 22° Northeast 237 273 28,100 435 Climbing Houston Center
Thu 08:19:38 PM 30.7706 -90.1025 21° North 248 285 28,600 439 Climbing Houston Center
Thu 08:20:39 PM 30.8350 -90.0728 22° Northeast 250 288 29,000 195 Climbing Houston Center
Thu 08:21:41 PM 30.9033 -90.0403 22° Northeast 261 300 29,000  Level Houston Center
Thu 08:22:43 PM 30.9908 -90.0014 21° North 277 319 29,000  Level Houston Center
Thu 08:23:45 PM 31.0644 -89.9672 22° Northeast 283 326 29,000  Level Houston Center
Thu 08:24:47 PM 31.1403 -89.9331 21° North 289 333 29,000  Level Houston Center
Thu 08:25:49 PM 31.2156 -89.8981 22° Northeast 292 336 29,000  Level Houston Center
Thu 08:26:51 PM 31.2911 -89.8636 21° North 291 335 29,000  Level Houston Center
Thu 08:27:53 PM 31.3667 -89.8278 22° Northeast 292 336 29,000  Level Houston Center
Thu 08:28:55 PM 31.4408 -89.7889 24° Northeast 292 336 29,000  Level Houston Center
Thu 08:29:57 PM 31.5322 -89.7431 23° Northeast 294 338 29,000  Level Houston Center
Thu 08:30:58 PM 31.6067 -89.7044 24° Northeast 294 338 29,000  Level Houston Center
Thu 08:32:00 PM 31.6817 -89.6661 24° Northeast 293 337 29,000  Level Houston Center
Thu 08:33:02 PM 31.7567 -89.6267 24° Northeast 294 338 29,000  Level Houston Center
Thu 08:34:04 PM 31.8414 -89.5828 24° Northeast 296 341 29,000  Level Houston Center
Thu 08:35:06 PM 31.9161 -89.5431 24° Northeast 296 341 29,000  Level Houston Center
Thu 08:36:01 PM 31.9864 -89.5075 23° Northeast 294 338 29,000  Level Memphis Center
Thu 08:37:01 PM 32.0592 -89.4675 25° Northeast 294 338 29,000  Level Memphis Center
Thu 08:38:01 PM 32.1361 -89.4275 24° Northeast 294 338 29,000  Level Memphis Center
Thu 08:39:01 PM 32.2089 -89.3900 24° Northeast 294 338 29,000  Level Memphis Center
Thu 08:40:01 PM 32.2836 -89.3497 24° Northeast 294 338 29,000  Level Memphis Center
Thu 08:41:01 PM 32.3586 -89.3122 23° Northeast 294 338 29,000 -400 Level Memphis Center
Thu 08:42:01 PM 32.4353 -89.2719 24° Northeast 294 338 28,200 -1,100 Descending Memphis Center
Thu 08:43:01 PM 32.5206 -89.2264 24° Northeast 301 346 26,800 -1,900 Descending Memphis Center
Thu 08:44:01 PM 32.5994 -89.1883 22° Northeast 307 353 24,400 -10,900 Descending Memphis Center
Thu 08:45:01 PM 32.6869 -89.1528 19° North 318 366 5,000 -9,700 Descending Memphis Center
Thu 08:46:01 PM 32.7658 -89.1244 17° North 313 360 5,000  Level Memphis Center
Thu 08:47:01 PM 32.8303 -89.0767 32° Northeast 297 342 5,000  Level Memphis Center
Thu 08:48:01 PM 32.8944 -89.0286 32° Northeast 284 327 5,000 850 Level Memphis Center
Thu 08:49:01 PM 32.9631 -88.9956 22° Northeast 263 303 6,700 50 Climbing Memphis Center
Thu 08:50:01 PM 33.0253 -88.9597 26° Northeast 252 290 5,100 -1,600 Descending Memphis Center

Login

Don't have an account? Register now (free) for customized features, flight alerts, and more!